sensor_id;sensor_type;location;lat;lon;timestamp;pressure;altitude;pressure_sealevel;temperature;humidity
15487;BME280;7845;53.698;10.078;2022-08-03T00:00:58;101112.31;;;21.66;100.00
15487;BME280;7845;53.698;10.078;2022-08-03T00:03:23;101106.38;;;21.61;100.00
15487;BME280;7845;53.698;10.078;2022-08-03T00:05:49;101110.25;;;21.54;100.00
15487;BME280;7845;53.698;10.078;2022-08-03T00:08:14;101110.63;;;21.65;100.00
15487;BME280;7845;53.698;10.078;2022-08-03T00:10:39;101106.56;;;21.57;100.00
15487;BME280;7845;53.698;10.078;2022-08-03T00:13:04;101112.31;;;21.66;100.00
15487;BME280;7845;53.698;10.078;2022-08-03T00:15:30;101106.22;;;21.64;100.00
15487;BME280;7845;53.698;10.078;2022-08-03T00:17:55;101113.34;;;21.64;100.00
15487;BME280;7845;53.698;10.078;2022-08-03T00:20:20;101108.09;;;21.62;100.00
15487;BME280;7845;53.698;10.078;2022-08-03T00:22:46;101106.88;;;21.50;100.00
15487;BME280;7845;53.698;10.078;2022-08-03T00:25:11;101116.28;;;21.39;100.00
15487;BME280;7845;53.698;10.078;2022-08-03T00:27:36;101113.56;;;21.40;100.00
15487;BME280;7845;53.698;10.078;2022-08-03T00:30:03;101106.19;;;21.28;100.00
15487;BME280;7845;53.698;10.078;2022-08-03T00:32:28;101104.28;;;21.30;100.00
15487;BME280;7845;53.698;10.078;2022-08-03T00:34:54;101101.44;;;21.35;100.00
15487;BME280;7845;53.698;10.078;2022-08-03T00:37:19;101100.28;;;21.40;100.00
15487;BME280;7845;53.698;10.078;2022-08-03T00:39:45;101098.56;;;21.39;100.00
15487;BME280;7845;53.698;10.078;2022-08-03T00:42:12;101097.13;;;21.32;100.00
15487;BME280;7845;53.698;10.078;2022-08-03T00:44:43;101100.09;;;21.26;100.00
15487;BME280;7845;53.698;10.078;2022-08-03T00:47:09;101093.06;;;21.05;100.00
15487;BME280;7845;53.698;10.078;2022-08-03T00:49:36;101090.03;;;21.14;100.00
15487;BME280;7845;53.698;10.078;2022-08-03T00:52:02;101097.31;;;21.09;100.00
15487;BME280;7845;53.698;10.078;2022-08-03T00:54:28;101093.59;;;21.13;100.00
15487;BME280;7845;53.698;10.078;2022-08-03T00:56:54;101091.09;;;21.10;100.00
15487;BME280;7845;53.698;10.078;2022-08-03T00:59:20;101094.91;;;21.23;100.00
15487;BME280;7845;53.698;10.078;2022-08-03T01:01:46;101083.88;;;21.32;100.00
15487;BME280;7845;53.698;10.078;2022-08-03T01:04:12;101083.63;;;21.37;100.00
15487;BME280;7845;53.698;10.078;2022-08-03T01:06:48;101087.06;;;21.39;100.00
15487;BME280;7845;53.698;10.078;2022-08-03T01:09:19;101081.25;;;21.31;100.00
15487;BME280;7845;53.698;10.078;2022-08-03T01:11:49;101087.59;;;21.28;100.00
15487;BME280;7845;53.698;10.078;2022-08-03T01:14:32;101077.44;;;21.55;100.00
15487;BME280;7845;53.698;10.078;2022-08-03T01:17:12;101082.47;;;21.42;100.00
15487;BME280;7845;53.698;10.078;2022-08-03T01:26:25;101074.88;;;21.35;100.00
15487;BME280;7845;53.698;10.078;2022-08-03T01:31:56;101076.72;;;21.33;100.00
15487;BME280;7845;53.698;10.078;2022-08-03T01:34:25;101070.44;;;21.35;100.00
15487;BME280;7845;53.698;10.078;2022-08-03T01:36:52;101076.97;;;21.28;100.00
15487;BME280;7845;53.698;10.078;2022-08-03T01:39:22;101069.44;;;21.38;100.00
15487;BME280;7845;53.698;10.078;2022-08-03T01:41:53;101073.00;;;21.37;100.00
15487;BME280;7845;53.698;10.078;2022-08-03T01:44:25;101071.94;;;21.41;100.00
15487;BME280;7845;53.698;10.078;2022-08-03T01:46:53;101067.13;;;21.30;100.00
15487;BME280;7845;53.698;10.078;2022-08-03T01:49:18;101065.41;;;21.29;100.00
15487;BME280;7845;53.698;10.078;2022-08-03T01:51:46;101066.41;;;21.27;100.00
15487;BME280;7845;53.698;10.078;2022-08-03T01:54:13;101064.97;;;21.38;100.00
15487;BME280;7845;53.698;10.078;2022-08-03T01:56:39;101070.59;;;21.32;100.00
15487;BME280;7845;53.698;10.078;2022-08-03T01:59:08;101069.00;;;21.28;100.00
15487;BME280;7845;53.698;10.078;2022-08-03T02:01:36;101071.66;;;21.28;100.00
15487;BME280;7845;53.698;10.078;2022-08-03T02:04:04;101070.78;;;21.28;100.00
15487;BME280;7845;53.698;10.078;2022-08-03T02:06:31;101055.56;;;21.31;100.00
15487;BME280;7845;53.698;10.078;2022-08-03T02:08:58;101061.09;;;21.27;100.00
15487;BME280;7845;53.698;10.078;2022-08-03T02:11:24;101063.06;;;21.23;100.00
15487;BME280;7845;53.698;10.078;2022-08-03T02:13:50;101070.19;;;21.21;100.00
15487;BME280;7845;53.698;10.078;2022-08-03T02:16:17;101069.09;;;21.07;100.00
15487;BME280;7845;53.698;10.078;2022-08-03T02:18:44;101061.88;;;21.10;100.00
15487;BME280;7845;53.698;10.078;2022-08-03T02:21:14;101062.31;;;21.20;100.00
15487;BME280;7845;53.698;10.078;2022-08-03T02:23:40;101058.38;;;21.10;100.00
15487;BME280;7845;53.698;10.078;2022-08-03T02:26:08;101057.94;;;21.19;100.00
15487;BME280;7845;53.698;10.078;2022-08-03T02:28:38;101061.47;;;21.19;100.00
15487;BME280;7845;53.698;10.078;2022-08-03T02:31:21;101053.25;;;21.05;100.00
15487;BME280;7845;53.698;10.078;2022-08-03T02:33:52;101055.50;;;21.14;100.00
15487;BME280;7845;53.698;10.078;2022-08-03T02:36:20;101066.19;;;21.13;100.00
15487;BME280;7845;53.698;10.078;2022-08-03T02:38:51;101062.78;;;20.90;100.00
15487;BME280;7845;53.698;10.078;2022-08-03T02:41:21;101057.06;;;21.00;100.00
15487;BME280;7845;53.698;10.078;2022-08-03T02:43:53;101057.81;;;20.83;100.00
15487;BME280;7845;53.698;10.078;2022-08-03T02:46:24;101047.56;;;20.75;100.00
15487;BME280;7845;53.698;10.078;2022-08-03T02:48:55;101050.75;;;20.82;100.00
15487;BME280;7845;53.698;10.078;2022-08-03T02:51:22;101048.25;;;20.79;100.00
15487;BME280;7845;53.698;10.078;2022-08-03T02:53:48;101045.47;;;20.82;100.00
15487;BME280;7845;53.698;10.078;2022-08-03T02:56:15;101049.44;;;20.92;100.00
15487;BME280;7845;53.698;10.078;2022-08-03T02:58:43;101044.13;;;20.92;100.00
15487;BME280;7845;53.698;10.078;2022-08-03T03:01:10;101040.53;;;20.74;100.00
15487;BME280;7845;53.698;10.078;2022-08-03T03:03:36;101042.41;;;20.52;100.00
15487;BME280;7845;53.698;10.078;2022-08-03T03:06:04;101052.50;;;20.44;100.00
15487;BME280;7845;53.698;10.078;2022-08-03T03:08:31;101044.63;;;20.42;100.00
15487;BME280;7845;53.698;10.078;2022-08-03T03:10:59;101046.91;;;20.50;100.00
15487;BME280;7845;53.698;10.078;2022-08-03T03:13:27;101046.41;;;20.42;100.00
15487;BME280;7845;53.698;10.078;2022-08-03T03:15:53;101042.63;;;20.27;100.00
15487;BME280;7845;53.698;10.078;2022-08-03T03:18:21;101045.44;;;20.43;100.00
15487;BME280;7845;53.698;10.078;2022-08-03T03:20:47;101050.63;;;20.46;100.00
15487;BME280;7845;53.698;10.078;2022-08-03T03:23:14;101042.28;;;20.35;100.00
15487;BME280;7845;53.698;10.078;2022-08-03T03:25:41;101050.13;;;20.16;100.00
15487;BME280;7845;53.698;10.078;2022-08-03T03:28:09;101049.81;;;20.04;100.00
15487;BME280;7845;53.698;10.078;2022-08-03T03:30:34;101050.34;;;20.12;100.00
15487;BME280;7845;53.698;10.078;2022-08-03T03:32:59;101043.91;;;20.17;100.00
15487;BME280;7845;53.698;10.078;2022-08-03T03:35:27;101053.03;;;20.32;100.00
15487;BME280;7845;53.698;10.078;2022-08-03T03:37:52;101052.16;;;20.31;100.00
15487;BME280;7845;53.698;10.078;2022-08-03T03:40:17;101049.31;;;20.36;100.00
15487;BME280;7845;53.698;10.078;2022-08-03T03:42:43;101049.38;;;20.34;100.00
15487;BME280;7845;53.698;10.078;2022-08-03T03:45:09;101052.84;;;20.36;100.00
15487;BME280;7845;53.698;10.078;2022-08-03T03:47:36;101048.31;;;20.38;100.00
15487;BME280;7845;53.698;10.078;2022-08-03T03:50:03;101052.50;;;20.44;100.00
15487;BME280;7845;53.698;10.078;2022-08-03T03:52:35;101048.47;;;20.35;100.00
15487;BME280;7845;53.698;10.078;2022-08-03T03:55:07;101048.25;;;20.40;100.00
15487;BME280;7845;53.698;10.078;2022-08-03T03:57:33;101047.13;;;20.46;100.00
15487;BME280;7845;53.698;10.078;2022-08-03T03:59:58;101048.09;;;20.43;100.00
15487;BME280;7845;53.698;10.078;2022-08-03T04:02:23;101041.47;;;20.53;100.00
15487;BME280;7845;53.698;10.078;2022-08-03T04:04:51;101051.31;;;20.70;100.00
15487;BME280;7845;53.698;10.078;2022-08-03T04:07:47;101049.06;;;20.81;100.00
15487;BME280;7845;53.698;10.078;2022-08-03T04:11:19;101049.94;;;20.81;100.00
15487;BME280;7845;53.698;10.078;2022-08-03T04:13:58;101042.53;;;20.69;100.00
15487;BME280;7845;53.698;10.078;2022-08-03T04:16:28;101045.53;;;20.80;100.00
15487;BME280;7845;53.698;10.078;2022-08-03T04:18:58;101046.31;;;20.82;100.00
15487;BME280;7845;53.698;10.078;2022-08-03T04:21:25;101046.47;;;20.79;100.00
15487;BME280;7845;53.698;10.078;2022-08-03T04:23:55;101057.38;;;20.92;100.00
15487;BME280;7845;53.698;10.078;2022-08-03T04:26:24;101054.16;;;20.67;100.00
15487;BME280;7845;53.698;10.078;2022-08-03T04:28:52;101055.56;;;20.74;100.00
15487;BME280;7845;53.698;10.078;2022-08-03T04:31:22;101052.81;;;20.95;100.00
15487;BME280;7845;53.698;10.078;2022-08-03T04:33:50;101058.31;;;21.11;100.00
15487;BME280;7845;53.698;10.078;2022-08-03T04:36:20;101058.22;;;21.13;100.00
15487;BME280;7845;53.698;10.078;2022-08-03T04:42:06;101065.41;;;21.29;100.00
15487;BME280;7845;53.698;10.078;2022-08-03T04:44:35;101060.03;;;21.31;100.00
15487;BME280;7845;53.698;10.078;2022-08-03T04:47:01;101065.41;;;21.29;100.00
15487;BME280;7845;53.698;10.078;2022-08-03T04:49:28;101059.66;;;21.38;100.00
15487;BME280;7845;53.698;10.078;2022-08-03T04:51:55;101059.06;;;21.50;100.00
15487;BME280;7845;53.698;10.078;2022-08-03T04:54:21;101063.25;;;21.56;100.00
15487;BME280;7845;53.698;10.078;2022-08-03T04:56:46;101059.72;;;21.56;100.00
15487;BME280;7845;53.698;10.078;2022-08-03T04:59:12;101071.72;;;21.81;100.00
15487;BME280;7845;53.698;10.078;2022-08-03T05:01:39;101065.22;;;21.87;100.00
15487;BME280;7845;53.698;10.078;2022-08-03T05:04:05;101063.59;;;21.84;100.00
15487;BME280;7845;53.698;10.078;2022-08-03T05:06:30;101070.69;;;22.02;100.00
15487;BME280;7845;53.698;10.078;2022-08-03T05:08:56;101068.56;;;21.92;100.00
15487;BME280;7845;53.698;10.078;2022-08-03T05:11:22;101070.13;;;21.96;100.00
15487;BME280;7845;53.698;10.078;2022-08-03T05:13:47;101071.00;;;22.14;100.00
15487;BME280;7845;53.698;10.078;2022-08-03T05:16:13;101068.56;;;22.26;100.00
15487;BME280;7845;53.698;10.078;2022-08-03T05:18:40;101069.34;;;22.11;100.00
15487;BME280;7845;53.698;10.078;2022-08-03T05:21:06;101067.88;;;21.87;100.00
15487;BME280;7845;53.698;10.078;2022-08-03T05:23:31;101076.19;;;22.34;100.00
15487;BME280;7845;53.698;10.078;2022-08-03T05:25:56;101068.66;;;22.25;100.00
15487;BME280;7845;53.698;10.078;2022-08-03T05:28:22;101062.53;;;22.57;100.00
15487;BME280;7845;53.698;10.078;2022-08-03T05:30:47;101066.56;;;22.64;100.00
15487;BME280;7845;53.698;10.078;2022-08-03T05:33:13;101069.44;;;22.44;100.00
15487;BME280;7845;53.698;10.078;2022-08-03T05:35:38;101064.41;;;22.55;100.00
15487;BME280;7845;53.698;10.078;2022-08-03T05:38:04;101064.94;;;22.61;100.00
15487;BME280;7845;53.698;10.078;2022-08-03T05:40:30;101056.34;;;22.74;100.00
15487;BME280;7845;53.698;10.078;2022-08-03T05:42:55;101067.47;;;22.65;100.00
15487;BME280;7845;53.698;10.078;2022-08-03T05:45:21;101067.41;;;22.49;100.00
15487;BME280;7845;53.698;10.078;2022-08-03T05:47:46;101064.91;;;22.46;100.00
15487;BME280;7845;53.698;10.078;2022-08-03T05:50:13;101066.53;;;22.66;100.00
15487;BME280;7845;53.698;10.078;2022-08-03T05:52:39;101074.63;;;22.80;100.00
15487;BME280;7845;53.698;10.078;2022-08-03T05:55:06;101072.72;;;22.66;100.00
15487;BME280;7845;53.698;10.078;2022-08-03T05:57:32;101069.47;;;22.77;100.00
15487;BME280;7845;53.698;10.078;2022-08-03T05:59:57;101063.22;;;22.78;100.00
15487;BME280;7845;53.698;10.078;2022-08-03T06:02:22;101067.47;;;22.82;100.00
15487;BME280;7845;53.698;10.078;2022-08-03T06:04:48;101067.28;;;22.85;100.00
15487;BME280;7845;53.698;10.078;2022-08-03T06:07:13;101070.22;;;22.96;100.00
15487;BME280;7845;53.698;10.078;2022-08-03T06:09:38;101065.50;;;23.01;100.00
15487;BME280;7845;53.698;10.078;2022-08-03T06:12:06;101070.66;;;23.04;100.00
15487;BME280;7845;53.698;10.078;2022-08-03T06:14:31;101066.28;;;23.19;100.00
15487;BME280;7845;53.698;10.078;2022-08-03T06:16:57;101064.09;;;23.42;100.00
15487;BME280;7845;53.698;10.078;2022-08-03T06:19:22;101061.25;;;23.45;100.00
15487;BME280;7845;53.698;10.078;2022-08-03T06:21:48;101069.03;;;23.33;100.00
15487;BME280;7845;53.698;10.078;2022-08-03T06:24:14;101059.00;;;23.38;100.00
15487;BME280;7845;53.698;10.078;2022-08-03T06:26:40;101066.41;;;23.48;100.00
15487;BME280;7845;53.698;10.078;2022-08-03T06:29:06;101056.34;;;23.38;100.00
15487;BME280;7845;53.698;10.078;2022-08-03T06:31:31;101060.72;;;23.70;100.00
15487;BME280;7845;53.698;10.078;2022-08-03T06:33:56;101061.59;;;23.55;100.00
15487;BME280;7845;53.698;10.078;2022-08-03T06:36:21;101062.03;;;23.63;100.00
15487;BME280;7845;53.698;10.078;2022-08-03T06:38:47;101055.00;;;23.62;100.00
15487;BME280;7845;53.698;10.078;2022-08-03T06:41:12;101054.25;;;23.27;100.00
15487;BME280;7845;53.698;10.078;2022-08-03T06:43:37;101062.72;;;23.35;100.00
15487;BME280;7845;53.698;10.078;2022-08-03T06:46:03;101059.06;;;23.36;100.00
15487;BME280;7845;53.698;10.078;2022-08-03T06:48:30;101067.22;;;23.50;100.00
15487;BME280;7845;53.698;10.078;2022-08-03T06:50:55;101059.97;;;23.68;100.00
15487;BME280;7845;53.698;10.078;2022-08-03T06:53:21;101061.16;;;23.62;100.00
15487;BME280;7845;53.698;10.078;2022-08-03T06:55:46;101062.19;;;23.76;100.00
15487;BME280;7845;53.698;10.078;2022-08-03T06:58:11;101062.59;;;23.84;100.00
15487;BME280;7845;53.698;10.078;2022-08-03T07:00:36;101071.47;;;23.84;100.00
15487;BME280;7845;53.698;10.078;2022-08-03T07:03:02;101070.00;;;23.63;100.00
15487;BME280;7845;53.698;10.078;2022-08-03T07:05:28;101066.31;;;23.65;100.00
15487;BME280;7845;53.698;10.078;2022-08-03T07:07:55;101073.59;;;23.78;100.00
15487;BME280;7845;53.698;10.078;2022-08-03T07:10:22;101076.81;;;23.68;100.00
15487;BME280;7845;53.698;10.078;2022-08-03T07:12:47;101075.50;;;23.76;100.00
15487;BME280;7845;53.698;10.078;2022-08-03T07:15:12;101083.78;;;23.71;100.00
15487;BME280;7845;53.698;10.078;2022-08-03T07:17:38;101076.97;;;23.81;100.00
15487;BME280;7845;53.698;10.078;2022-08-03T07:20:05;101078.91;;;23.93;100.00
15487;BME280;7845;53.698;10.078;2022-08-03T07:22:32;101077.94;;;23.80;100.00
15487;BME280;7845;53.698;10.078;2022-08-03T07:24:58;101077.09;;;24.09;100.00
15487;BME280;7845;53.698;10.078;2022-08-03T07:27:23;101072.88;;;24.05;100.00
15487;BME280;7845;53.698;10.078;2022-08-03T07:29:51;101071.97;;;23.91;100.00
15487;BME280;7845;53.698;10.078;2022-08-03T07:32:16;101076.78;;;24.30;100.00
15487;BME280;7845;53.698;10.078;2022-08-03T07:34:42;101072.72;;;24.38;100.00
15487;BME280;7845;53.698;10.078;2022-08-03T07:37:07;101066.69;;;24.35;100.00
15487;BME280;7845;53.698;10.078;2022-08-03T07:39:32;101076.13;;;24.26;100.00
15487;BME280;7845;53.698;10.078;2022-08-03T07:41:58;101070.69;;;24.28;100.00
15487;BME280;7845;53.698;10.078;2022-08-03T07:44:23;101073.72;;;24.21;100.00
15487;BME280;7845;53.698;10.078;2022-08-03T07:46:48;101077.47;;;24.33;100.00
15487;BME280;7845;53.698;10.078;2022-08-03T07:49:15;101074.78;;;24.19;100.00
15487;BME280;7845;53.698;10.078;2022-08-03T07:51:41;101076.31;;;24.07;100.00
15487;BME280;7845;53.698;10.078;2022-08-03T07:54:07;101074.34;;;24.11;100.00
15487;BME280;7845;53.698;10.078;2022-08-03T07:56:34;101074.50;;;24.23;100.00
15487;BME280;7845;53.698;10.078;2022-08-03T07:59:00;101071.28;;;24.33;100.00
15487;BME280;7845;53.698;10.078;2022-08-03T08:01:27;101068.59;;;24.33;100.00
15487;BME280;7845;53.698;10.078;2022-08-03T08:03:52;101072.53;;;24.41;100.00
15487;BME280;7845;53.698;10.078;2022-08-03T08:06:19;101066.56;;;24.52;100.00
15487;BME280;7845;53.698;10.078;2022-08-03T08:08:45;101069.31;;;24.50;100.00
15487;BME280;7845;53.698;10.078;2022-08-03T08:11:11;101079.44;;;24.59;100.00
15487;BME280;7845;53.698;10.078;2022-08-03T08:13:36;101071.34;;;24.61;100.00
15487;BME280;7845;53.698;10.078;2022-08-03T08:16:03;101065.03;;;24.62;100.00
15487;BME280;7845;53.698;10.078;2022-08-03T08:18:28;101068.94;;;24.70;100.00
15487;BME280;7845;53.698;10.078;2022-08-03T08:20:54;101070.13;;;24.95;100.00
15487;BME280;7845;53.698;10.078;2022-08-03T08:23:20;101060.94;;;25.13;100.00
15487;BME280;7845;53.698;10.078;2022-08-03T08:25:52;101059.63;;;25.20;100.00
15487;BME280;7845;53.698;10.078;2022-08-03T08:28:18;101059.78;;;25.31;100.00
15487;BME280;7845;53.698;10.078;2022-08-03T08:30:44;101065.44;;;25.12;100.00
15487;BME280;7845;53.698;10.078;2022-08-03T08:33:09;101057.50;;;25.25;100.00
15487;BME280;7845;53.698;10.078;2022-08-03T08:35:35;101061.34;;;25.48;100.00
15487;BME280;7845;53.698;10.078;2022-08-03T08:38:01;101067.38;;;25.65;100.00
15487;BME280;7845;53.698;10.078;2022-08-03T08:40:27;101063.06;;;25.63;100.00
15487;BME280;7845;53.698;10.078;2022-08-03T08:42:53;101068.59;;;25.60;100.00
15487;BME280;7845;53.698;10.078;2022-08-03T08:45:19;101064.97;;;25.61;100.00
15487;BME280;7845;53.698;10.078;2022-08-03T08:47:46;101061.81;;;25.95;100.00
15487;BME280;7845;53.698;10.078;2022-08-03T08:50:13;101065.72;;;25.90;100.00
15487;BME280;7845;53.698;10.078;2022-08-03T08:52:46;101064.28;;;25.98;100.00
15487;BME280;7845;53.698;10.078;2022-08-03T08:55:17;101066.97;;;25.71;100.00
15487;BME280;7845;53.698;10.078;2022-08-03T08:58:01;101076.22;;;25.66;100.00
15487;BME280;7845;53.698;10.078;2022-08-03T09:00:29;101073.47;;;25.67;100.00
15487;BME280;7845;53.698;10.078;2022-08-03T09:02:55;101073.06;;;25.73;100.00
15487;BME280;7845;53.698;10.078;2022-08-03T09:05:20;101076.13;;;25.94;100.00
15487;BME280;7845;53.698;10.078;2022-08-03T09:07:46;101073.56;;;25.93;100.00
15487;BME280;7845;53.698;10.078;2022-08-03T09:10:14;101075.31;;;26.06;100.00
15487;BME280;7845;53.698;10.078;2022-08-03T09:12:44;101075.31;;;26.33;100.00
15487;BME280;7845;53.698;10.078;2022-08-03T09:15:20;101066.81;;;26.26;100.00
15487;BME280;7845;53.698;10.078;2022-08-03T09:17:46;101083.63;;;26.16;100.00
15487;BME280;7845;53.698;10.078;2022-08-03T09:20:12;101083.03;;;26.11;100.00
15487;BME280;7845;53.698;10.078;2022-08-03T09:22:51;101071.25;;;26.01;100.00
15487;BME280;7845;53.698;10.078;2022-08-03T09:25:18;101081.28;;;26.24;100.00
15487;BME280;7845;53.698;10.078;2022-08-03T09:27:44;101074.34;;;26.34;100.00
15487;BME280;7845;53.698;10.078;2022-08-03T09:30:17;101068.13;;;26.59;100.00
15487;BME280;7845;53.698;10.078;2022-08-03T09:32:43;101066.00;;;26.76;100.00
15487;BME280;7845;53.698;10.078;2022-08-03T09:35:11;101073.19;;;26.76;100.00
15487;BME280;7845;53.698;10.078;2022-08-03T09:37:36;101067.41;;;26.94;100.00
15487;BME280;7845;53.698;10.078;2022-08-03T09:40:03;101076.28;;;27.08;100.00
15487;BME280;7845;53.698;10.078;2022-08-03T09:42:28;101070.84;;;27.33;100.00
15487;BME280;7845;53.698;10.078;2022-08-03T09:44:54;101069.47;;;27.76;100.00
15487;BME280;7845;53.698;10.078;2022-08-03T09:47:30;101069.41;;;27.89;100.00
15487;BME280;7845;53.698;10.078;2022-08-03T09:50:15;101067.28;;;28.05;100.00
15487;BME280;7845;53.698;10.078;2022-08-03T09:52:40;101056.97;;;28.23;100.00
15487;BME280;7845;53.698;10.078;2022-08-03T09:55:09;101048.44;;;28.18;100.00
15487;BME280;7845;53.698;10.078;2022-08-03T09:57:34;101061.16;;;28.27;100.00
15487;BME280;7845;53.698;10.078;2022-08-03T10:02:37;101053.88;;;28.51;100.00
15487;BME280;7845;53.698;10.078;2022-08-03T10:05:03;101056.47;;;28.64;100.00
15487;BME280;7845;53.698;10.078;2022-08-03T10:07:29;101055.53;;;28.76;100.00
15487;BME280;7845;53.698;10.078;2022-08-03T10:09:59;101055.00;;;28.60;100.00
15487;BME280;7845;53.698;10.078;2022-08-03T10:12:25;101051.88;;;28.99;100.00
15487;BME280;7845;53.698;10.078;2022-08-03T10:14:50;101056.28;;;29.11;100.00
15487;BME280;7845;53.698;10.078;2022-08-03T10:17:17;101043.44;;;29.15;99.49
15487;BME280;7845;53.698;10.078;2022-08-03T10:19:42;101045.69;;;28.52;100.00
15487;BME280;7845;53.698;10.078;2022-08-03T10:22:21;101043.47;;;28.46;100.00
15487;BME280;7845;53.698;10.078;2022-08-03T10:27:35;101048.03;;;28.11;100.00
15487;BME280;7845;53.698;10.078;2022-08-03T10:30:06;101054.28;;;27.64;100.00
15487;BME280;7845;53.698;10.078;2022-08-03T10:32:55;101052.56;;;27.27;100.00
15487;BME280;7845;53.698;10.078;2022-08-03T10:35:23;101059.88;;;27.12;100.00
15487;BME280;7845;53.698;10.078;2022-08-03T10:38:01;101055.91;;;27.18;100.00
15487;BME280;7845;53.698;10.078;2022-08-03T10:40:30;101041.69;;;27.54;100.00
15487;BME280;7845;53.698;10.078;2022-08-03T10:42:58;101027.66;;;27.85;100.00
15487;BME280;7845;53.698;10.078;2022-08-03T10:45:27;101042.97;;;27.72;100.00
15487;BME280;7845;53.698;10.078;2022-08-03T10:47:55;101045.66;;;27.72;100.00
15487;BME280;7845;53.698;10.078;2022-08-03T10:50:24;101041.09;;;27.61;100.00
15487;BME280;7845;53.698;10.078;2022-08-03T10:52:53;101037.09;;;27.67;100.00
15487;BME280;7845;53.698;10.078;2022-08-03T10:55:29;101036.06;;;27.80;100.00
15487;BME280;7845;53.698;10.078;2022-08-03T10:58:13;101034.97;;;28.07;100.00
15487;BME280;7845;53.698;10.078;2022-08-03T11:00:57;101032.78;;;28.12;100.00
15487;BME280;7845;53.698;10.078;2022-08-03T11:03:22;101043.19;;;28.16;100.00
15487;BME280;7845;53.698;10.078;2022-08-03T11:05:47;101035.25;;;28.26;100.00
15487;BME280;7845;53.698;10.078;2022-08-03T11:08:20;101034.44;;;28.36;100.00
15487;BME280;7845;53.698;10.078;2022-08-03T11:10:48;101028.19;;;28.25;100.00
15487;BME280;7845;53.698;10.078;2022-08-03T11:13:15;101029.88;;;28.26;100.00
15487;BME280;7845;53.698;10.078;2022-08-03T11:15:43;101029.47;;;28.54;100.00
15487;BME280;7845;53.698;10.078;2022-08-03T11:18:11;101033.31;;;28.85;100.00
15487;BME280;7845;53.698;10.078;2022-08-03T11:20:52;101035.38;;;28.92;100.00
15487;BME280;7845;53.698;10.078;2022-08-03T11:26:19;101033.88;;;29.22;100.00
15487;BME280;7845;53.698;10.078;2022-08-03T11:28:47;101036.72;;;29.09;100.00
15487;BME280;7845;53.698;10.078;2022-08-03T11:34:10;101026.28;;;29.49;95.98
15487;BME280;7845;53.698;10.078;2022-08-03T11:39:44;101038.28;;;29.77;95.68
15487;BME280;7845;53.698;10.078;2022-08-03T11:44:53;101031.78;;;29.79;92.05
15487;BME280;7845;53.698;10.078;2022-08-03T11:47:20;101027.75;;;29.85;91.99
15487;BME280;7845;53.698;10.078;2022-08-03T11:49:46;101040.53;;;30.03;92.61
15487;BME280;7845;53.698;10.078;2022-08-03T11:52:13;101033.06;;;30.28;91.91
15487;BME280;7845;53.698;10.078;2022-08-03T11:54:38;101033.31;;;30.04;90.11
15487;BME280;7845;53.698;10.078;2022-08-03T11:57:05;101027.09;;;30.45;89.52
15487;BME280;7845;53.698;10.078;2022-08-03T11:59:35;101035.88;;;30.47;89.06
15487;BME280;7845;53.698;10.078;2022-08-03T12:02:11;101027.00;;;30.56;84.31
15487;BME280;7845;53.698;10.078;2022-08-03T12:04:57;101022.75;;;30.84;86.48
15487;BME280;7845;53.698;10.078;2022-08-03T12:07:24;101022.47;;;30.87;83.94
15487;BME280;7845;53.698;10.078;2022-08-03T12:10:13;101013.13;;;30.91;81.48
15487;BME280;7845;53.698;10.078;2022-08-03T12:12:40;101014.94;;;31.11;77.90
15487;BME280;7845;53.698;10.078;2022-08-03T12:15:07;101011.38;;;31.10;78.20
15487;BME280;7845;53.698;10.078;2022-08-03T12:17:38;101009.94;;;31.06;77.03
15487;BME280;7845;53.698;10.078;2022-08-03T12:20:05;101008.25;;;31.05;77.90
15487;BME280;7845;53.698;10.078;2022-08-03T12:22:38;101003.72;;;31.15;76.71
15487;BME280;7845;53.698;10.078;2022-08-03T12:25:05;101003.44;;;31.09;76.52
15487;BME280;7845;53.698;10.078;2022-08-03T12:27:31;101003.56;;;31.07;78.75
15487;BME280;7845;53.698;10.078;2022-08-03T12:29:58;100999.22;;;31.35;77.81
15487;BME280;7845;53.698;10.078;2022-08-03T12:32:24;101003.91;;;31.33;77.99
15487;BME280;7845;53.698;10.078;2022-08-03T12:34:52;100990.13;;;31.46;75.93
15487;BME280;7845;53.698;10.078;2022-08-03T12:37:20;100997.88;;;31.50;77.63
15487;BME280;7845;53.698;10.078;2022-08-03T12:39:54;100994.88;;;31.72;78.67
15487;BME280;7845;53.698;10.078;2022-08-03T12:42:20;100985.06;;;31.91;74.21
15487;BME280;7845;53.698;10.078;2022-08-03T12:44:45;101002.56;;;31.77;75.52
15487;BME280;7845;53.698;10.078;2022-08-03T12:47:13;100986.19;;;31.88;75.20
15487;BME280;7845;53.698;10.078;2022-08-03T12:49:50;100995.72;;;31.83;77.09
15487;BME280;7845;53.698;10.078;2022-08-03T12:52:18;100995.28;;;31.97;78.34
15487;BME280;7845;53.698;10.078;2022-08-03T12:54:57;100993.31;;;31.70;77.91
15487;BME280;7845;53.698;10.078;2022-08-03T12:57:24;100989.06;;;31.87;74.30
15487;BME280;7845;53.698;10.078;2022-08-03T12:59:49;100969.72;;;32.10;72.21
15487;BME280;7845;53.698;10.078;2022-08-03T13:02:16;100990.91;;;32.05;73.93
15487;BME280;7845;53.698;10.078;2022-08-03T13:04:42;100997.16;;;32.15;73.65
15487;BME280;7845;53.698;10.078;2022-08-03T13:07:09;100991.63;;;32.07;72.31
15487;BME280;7845;53.698;10.078;2022-08-03T13:09:43;100981.22;;;32.22;71.80
15487;BME280;7845;53.698;10.078;2022-08-03T13:12:17;100980.25;;;32.13;69.78
15487;BME280;7845;53.698;10.078;2022-08-03T13:14:46;100984.31;;;32.27;70.76